sensor_id;sensor_type;location;lat;lon;timestamp;P1;durP1;ratioP1;P2;durP2;ratioP2
67975;SDS011;54757;50.890;20.670;2022-07-26T00:00:28;12;;;12;;
67975;SDS011;54757;50.890;20.670;2022-07-26T00:07:04;13;;;13;;
67975;SDS011;54757;50.890;20.670;2022-07-26T00:14:21;13;;;13;;
67975;SDS011;54757;50.890;20.670;2022-07-26T00:21:06;13;;;13;;
67975;SDS011;54757;50.890;20.670;2022-07-26T00:28:16;13;;;13;;
67975;SDS011;54757;50.890;20.670;2022-07-26T00:35:15;15;;;14;;
67975;SDS011;54757;50.890;20.670;2022-07-26T00:42:16;15;;;14;;
67975;SDS011;54757;50.890;20.670;2022-07-26T00:49:18;15;;;14;;
67975;SDS011;54757;50.890;20.670;2022-07-26T00:56:17;15;;;14;;
67975;SDS011;54757;50.890;20.670;2022-07-26T01:00:16;15;;;14;;
67975;SDS011;54757;50.890;20.670;2022-07-26T01:07:17;15;;;14;;
67975;SDS011;54757;50.890;20.670;2022-07-26T01:14:18;15;;;14;;
67975;SDS011;54757;50.890;20.670;2022-07-26T01:21:26;15;;;14;;
67975;SDS011;54757;50.890;20.670;2022-07-26T01:28:15;15;;;14;;
67975;SDS011;54757;50.890;20.670;2022-07-26T01:35:19;18;;;18;;
67975;SDS011;54757;50.890;20.670;2022-07-26T01:42:17;18;;;18;;
67975;SDS011;54757;50.890;20.670;2022-07-26T01:49:19;18;;;18;;
67975;SDS011;54757;50.890;20.670;2022-07-26T01:56:05;18;;;18;;
67975;SDS011;54757;50.890;20.670;2022-07-26T02:00:06;18;;;18;;
67975;SDS011;54757;50.890;20.670;2022-07-26T02:07:05;14;;;14;;
67975;SDS011;54757;50.890;20.670;2022-07-26T02:14:14;14;;;14;;
67975;SDS011;54757;50.890;20.670;2022-07-26T02:21:07;14;;;14;;
67975;SDS011;54757;50.890;20.670;2022-07-26T02:28:20;14;;;14;;
67975;SDS011;54757;50.890;20.670;2022-07-26T02:35:05;16;;;14;;
67975;SDS011;54757;50.890;20.670;2022-07-26T02:42:17;16;;;14;;
67975;SDS011;54757;50.890;20.670;2022-07-26T02:49:21;16;;;14;;
67975;SDS011;54757;50.890;20.670;2022-07-26T03:00:07;16;;;14;;
67975;SDS011;54757;50.890;20.670;2022-07-26T03:07:05;15;;;15;;
67975;SDS011;54757;50.890;20.670;2022-07-26T03:14:05;15;;;15;;
67975;SDS011;54757;50.890;20.670;2022-07-26T03:21:17;15;;;15;;
67975;SDS011;54757;50.890;20.670;2022-07-26T03:28:02;15;;;15;;
67975;SDS011;54757;50.890;20.670;2022-07-26T03:35:14;15;;;13;;
67975;SDS011;54757;50.890;20.670;2022-07-26T03:42:17;15;;;13;;
67975;SDS011;54757;50.890;20.670;2022-07-26T03:49:18;15;;;13;;
67975;SDS011;54757;50.890;20.670;2022-07-26T03:56:48;15;;;13;;
67975;SDS011;54757;50.890;20.670;2022-07-26T04:00:04;15;;;13;;
67975;SDS011;54757;50.890;20.670;2022-07-26T04:07:03;15;;;14;;
67975;SDS011;54757;50.890;20.670;2022-07-26T04:14:02;15;;;14;;
67975;SDS011;54757;50.890;20.670;2022-07-26T04:21:04;15;;;14;;
67975;SDS011;54757;50.890;20.670;2022-07-26T04:28:06;15;;;14;;
67975;SDS011;54757;50.890;20.670;2022-07-26T04:42:05;15;;;14;;
67975;SDS011;54757;50.890;20.670;2022-07-26T04:49:18;15;;;14;;
67975;SDS011;54757;50.890;20.670;2022-07-26T04:56:07;15;;;14;;
67975;SDS011;54757;50.890;20.670;2022-07-26T05:00:24;15;;;14;;
67975;SDS011;54757;50.890;20.670;2022-07-26T05:07:15;14;;;14;;
67975;SDS011;54757;50.890;20.670;2022-07-26T05:14:16;14;;;14;;
67975;SDS011;54757;50.890;20.670;2022-07-26T05:21:18;14;;;14;;
67975;SDS011;54757;50.890;20.670;2022-07-26T05:28:17;14;;;14;;
67975;SDS011;54757;50.890;20.670;2022-07-26T05:35:21;12;;;12;;
67975;SDS011;54757;50.890;20.670;2022-07-26T05:42:05;12;;;12;;
67975;SDS011;54757;50.890;20.670;2022-07-26T05:49:03;12;;;12;;
67975;SDS011;54757;50.890;20.670;2022-07-26T05:56:05;12;;;12;;
67975;SDS011;54757;50.890;20.670;2022-07-26T06:00:00;12;;;12;;
67975;SDS011;54757;50.890;20.670;2022-07-26T06:07:15;13;;;13;;
67975;SDS011;54757;50.890;20.670;2022-07-26T06:14:14;13;;;13;;
67975;SDS011;54757;50.890;20.670;2022-07-26T06:21:03;13;;;13;;
67975;SDS011;54757;50.890;20.670;2022-07-26T06:28:10;13;;;13;;
67975;SDS011;54757;50.890;20.670;2022-07-26T06:35:13;16;;;15;;
67975;SDS011;54757;50.890;20.670;2022-07-26T06:42:05;16;;;15;;
67975;SDS011;54757;50.890;20.670;2022-07-26T06:49:18;16;;;15;;
67975;SDS011;54757;50.890;20.670;2022-07-26T06:56:16;16;;;15;;
67975;SDS011;54757;50.890;20.670;2022-07-26T07:00:02;16;;;15;;
67975;SDS011;54757;50.890;20.670;2022-07-26T07:14:15;13;;;13;;
67975;SDS011;54757;50.890;20.670;2022-07-26T07:21:03;13;;;13;;
67975;SDS011;54757;50.890;20.670;2022-07-26T07:28:17;13;;;13;;
67975;SDS011;54757;50.890;20.670;2022-07-26T07:42:02;16;;;16;;
67975;SDS011;54757;50.890;20.670;2022-07-26T07:49:18;16;;;16;;
67975;SDS011;54757;50.890;20.670;2022-07-26T07:56:17;16;;;16;;
67975;SDS011;54757;50.890;20.670;2022-07-26T08:00:01;16;;;16;;
67975;SDS011;54757;50.890;20.670;2022-07-26T08:14:15;20;;;18;;
67975;SDS011;54757;50.890;20.670;2022-07-26T08:21:16;20;;;18;;
67975;SDS011;54757;50.890;20.670;2022-07-26T08:28:18;20;;;18;;
67975;SDS011;54757;50.890;20.670;2022-07-26T08:35:19;20;;;18;;
67975;SDS011;54757;50.890;20.670;2022-07-26T08:42:21;20;;;20;;
67975;SDS011;54757;50.890;20.670;2022-07-26T08:49:06;20;;;20;;
67975;SDS011;54757;50.890;20.670;2022-07-26T08:56:18;20;;;20;;
67975;SDS011;54757;50.890;20.670;2022-07-26T09:00:24;20;;;20;;
67975;SDS011;54757;50.890;20.670;2022-07-26T09:14:17;23;;;21;;
67975;SDS011;54757;50.890;20.670;2022-07-26T09:21:05;23;;;21;;
67975;SDS011;54757;50.890;20.670;2022-07-26T09:28:29;23;;;21;;
67975;SDS011;54757;50.890;20.670;2022-07-26T09:35:31;23;;;21;;
67975;SDS011;54757;50.890;20.670;2022-07-26T09:42:07;22;;;22;;
67975;SDS011;54757;50.890;20.670;2022-07-26T09:49:25;22;;;22;;
67975;SDS011;54757;50.890;20.670;2022-07-26T09:56:08;22;;;22;;
67975;SDS011;54757;50.890;20.670;2022-07-26T10:00:19;22;;;22;;
67975;SDS011;54757;50.890;20.670;2022-07-26T10:14:40;25;;;24;;
67975;SDS011;54757;50.890;20.670;2022-07-26T10:21:27;25;;;24;;
67975;SDS011;54757;50.890;20.670;2022-07-26T10:28:02;25;;;24;;
67975;SDS011;54757;50.890;20.670;2022-07-26T10:35:53;25;;;24;;
67975;SDS011;54757;50.890;20.670;2022-07-26T10:42:19;22;;;22;;
67975;SDS011;54757;50.890;20.670;2022-07-26T10:49:33;22;;;22;;
67975;SDS011;54757;50.890;20.670;2022-07-26T10:56:17;22;;;22;;
67975;SDS011;54757;50.890;20.670;2022-07-26T11:00:14;22;;;22;;
67975;SDS011;54757;50.890;20.670;2022-07-26T11:14:03;20;;;19;;
67975;SDS011;54757;50.890;20.670;2022-07-26T11:21:20;20;;;19;;
67975;SDS011;54757;50.890;20.670;2022-07-26T11:28:05;20;;;19;;
67975;SDS011;54757;50.890;20.670;2022-07-26T11:35:17;20;;;19;;
67975;SDS011;54757;50.890;20.670;2022-07-26T11:42:02;22;;;21;;
67975;SDS011;54757;50.890;20.670;2022-07-26T11:49:23;22;;;21;;
67975;SDS011;54757;50.890;20.670;2022-07-26T11:56:31;22;;;21;;
67975;SDS011;54757;50.890;20.670;2022-07-26T12:00:22;22;;;21;;
67975;SDS011;54757;50.890;20.670;2022-07-26T12:07:21;22;;;21;;
67975;SDS011;54757;50.890;20.670;2022-07-26T12:14:05;28;;;28;;
67975;SDS011;54757;50.890;20.670;2022-07-26T12:21:13;28;;;28;;
67975;SDS011;54757;50.890;20.670;2022-07-26T12:28:02;28;;;28;;
67975;SDS011;54757;50.890;20.670;2022-07-26T12:35:31;28;;;28;;
67975;SDS011;54757;50.890;20.670;2022-07-26T12:42:55;34;;;32;;
67975;SDS011;54757;50.890;20.670;2022-07-26T12:49:20;34;;;32;;
67975;SDS011;54757;50.890;20.670;2022-07-26T12:56:15;34;;;32;;
67975;SDS011;54757;50.890;20.670;2022-07-26T13:00:24;34;;;32;;
67975;SDS011;54757;50.890;20.670;2022-07-26T13:07:21;34;;;32;;
67975;SDS011;54757;50.890;20.670;2022-07-26T13:14:16;38;;;32;;
67975;SDS011;54757;50.890;20.670;2022-07-26T13:21:03;38;;;32;;
67975;SDS011;54757;50.890;20.670;2022-07-26T13:28:03;38;;;32;;
67975;SDS011;54757;50.890;20.670;2022-07-26T13:35:12;38;;;32;;
67975;SDS011;54757;50.890;20.670;2022-07-26T13:42:14;31;;;30;;
67975;SDS011;54757;50.890;20.670;2022-07-26T13:49:05;31;;;30;;
67975;SDS011;54757;50.890;20.670;2022-07-26T13:56:02;31;;;30;;
67975;SDS011;54757;50.890;20.670;2022-07-26T14:00:01;31;;;30;;
67975;SDS011;54757;50.890;20.670;2022-07-26T14:07:03;31;;;30;;
67975;SDS011;54757;50.890;20.670;2022-07-26T14:21:16;21;;;20;;
67975;SDS011;54757;50.890;20.670;2022-07-26T14:28:15;21;;;20;;
67975;SDS011;54757;50.890;20.670;2022-07-26T14:35:04;21;;;20;;
67975;SDS011;54757;50.890;20.670;2022-07-26T14:49:20;13;;;13;;
67975;SDS011;54757;50.890;20.670;2022-07-26T14:56:03;13;;;13;;
67975;SDS011;54757;50.890;20.670;2022-07-26T15:00:06;13;;;13;;
67975;SDS011;54757;50.890;20.670;2022-07-26T15:07:02;13;;;13;;
67975;SDS011;54757;50.890;20.670;2022-07-26T15:21:03;15;;;15;;
67975;SDS011;54757;50.890;20.670;2022-07-26T15:28:15;15;;;15;;
67975;SDS011;54757;50.890;20.670;2022-07-26T15:35:23;15;;;15;;
67975;SDS011;54757;50.890;20.670;2022-07-26T15:49:03;15;;;15;;
67975;SDS011;54757;50.890;20.670;2022-07-26T15:56:16;15;;;15;;
67975;SDS011;54757;50.890;20.670;2022-07-26T16:00:04;15;;;15;;
67975;SDS011;54757;50.890;20.670;2022-07-26T16:07:17;15;;;15;;
67975;SDS011;54757;50.890;20.670;2022-07-26T16:21:02;17;;;17;;
67975;SDS011;54757;50.890;20.670;2022-07-26T16:28:17;17;;;17;;
67975;SDS011;54757;50.890;20.670;2022-07-26T16:35:08;17;;;17;;
67975;SDS011;54757;50.890;20.670;2022-07-26T16:49:05;18;;;16;;
67975;SDS011;54757;50.890;20.670;2022-07-26T16:56:02;18;;;16;;
67975;SDS011;54757;50.890;20.670;2022-07-26T17:00:21;18;;;16;;
67975;SDS011;54757;50.890;20.670;2022-07-26T17:07:04;18;;;16;;
67975;SDS011;54757;50.890;20.670;2022-07-26T17:21:05;19;;;19;;
67975;SDS011;54757;50.890;20.670;2022-07-26T17:28:02;19;;;19;;
67975;SDS011;54757;50.890;20.670;2022-07-26T17:35:19;19;;;19;;
67975;SDS011;54757;50.890;20.670;2022-07-26T17:49:18;17;;;17;;
67975;SDS011;54757;50.890;20.670;2022-07-26T17:56:06;17;;;17;;
67975;SDS011;54757;50.890;20.670;2022-07-26T18:00:10;17;;;17;;
67975;SDS011;54757;50.890;20.670;2022-07-26T18:07:03;17;;;17;;
67975;SDS011;54757;50.890;20.670;2022-07-26T18:21:15;32;;;28;;
67975;SDS011;54757;50.890;20.670;2022-07-26T18:28:15;32;;;28;;
67975;SDS011;54757;50.890;20.670;2022-07-26T18:35:02;32;;;28;;
67975;SDS011;54757;50.890;20.670;2022-07-26T18:49:18;31;;;30;;
67975;SDS011;54757;50.890;20.670;2022-07-26T18:56:04;31;;;30;;
67975;SDS011;54757;50.890;20.670;2022-07-26T19:00:25;31;;;30;;
67975;SDS011;54757;50.890;20.670;2022-07-26T19:07:03;31;;;30;;
67975;SDS011;54757;50.890;20.670;2022-07-26T19:21:04;25;;;24;;
67975;SDS011;54757;50.890;20.670;2022-07-26T19:28:05;25;;;24;;
67975;SDS011;54757;50.890;20.670;2022-07-26T19:35:22;25;;;24;;
67975;SDS011;54757;50.890;20.670;2022-07-26T19:42:18;25;;;24;;
67975;SDS011;54757;50.890;20.670;2022-07-26T19:49:20;31;;;30;;
67975;SDS011;54757;50.890;20.670;2022-07-26T19:56:17;31;;;30;;
67975;SDS011;54757;50.890;20.670;2022-07-26T20:00:16;31;;;30;;
67975;SDS011;54757;50.890;20.670;2022-07-26T20:07:05;31;;;30;;
67975;SDS011;54757;50.890;20.670;2022-07-26T20:21:03;31;;;29;;
67975;SDS011;54757;50.890;20.670;2022-07-26T20:28:19;31;;;29;;
67975;SDS011;54757;50.890;20.670;2022-07-26T20:35:02;31;;;29;;
67975;SDS011;54757;50.890;20.670;2022-07-26T20:42:05;31;;;29;;
67975;SDS011;54757;50.890;20.670;2022-07-26T20:49:05;38;;;33;;
67975;SDS011;54757;50.890;20.670;2022-07-26T20:56:14;38;;;33;;
67975;SDS011;54757;50.890;20.670;2022-07-26T21:00:21;38;;;33;;
67975;SDS011;54757;50.890;20.670;2022-07-26T21:07:17;38;;;33;;
67975;SDS011;54757;50.890;20.670;2022-07-26T21:21:18;24;;;23;;
67975;SDS011;54757;50.890;20.670;2022-07-26T21:28:06;24;;;23;;
67975;SDS011;54757;50.890;20.670;2022-07-26T21:35:13;24;;;23;;
67975;SDS011;54757;50.890;20.670;2022-07-26T21:42:08;24;;;23;;
67975;SDS011;54757;50.890;20.670;2022-07-26T21:49:03;30;;;29;;
67975;SDS011;54757;50.890;20.670;2022-07-26T21:56:17;30;;;29;;
67975;SDS011;54757;50.890;20.670;2022-07-26T22:00:18;30;;;29;;
67975;SDS011;54757;50.890;20.670;2022-07-26T22:07:03;30;;;29;;
67975;SDS011;54757;50.890;20.670;2022-07-26T22:14:17;38;;;33;;
67975;SDS011;54757;50.890;20.670;2022-07-26T22:21:07;38;;;33;;
67975;SDS011;54757;50.890;20.670;2022-07-26T22:28:16;38;;;33;;
67975;SDS011;54757;50.890;20.670;2022-07-26T22:35:20;39;;;35;;
67975;SDS011;54757;50.890;20.670;2022-07-26T22:42:16;39;;;35;;
67975;SDS011;54757;50.890;20.670;2022-07-26T22:49:03;39;;;35;;
67975;SDS011;54757;50.890;20.670;2022-07-26T22:56:18;39;;;35;;
67975;SDS011;54757;50.890;20.670;2022-07-26T23:07:02;55;;;45;;
67975;SDS011;54757;50.890;20.670;2022-07-26T23:14:03;55;;;45;;
67975;SDS011;54757;50.890;20.670;2022-07-26T23:21:04;55;;;45;;
67975;SDS011;54757;50.890;20.670;2022-07-26T23:28:15;55;;;45;;
67975;SDS011;54757;50.890;20.670;2022-07-26T23:35:15;51;;;42;;
67975;SDS011;54757;50.890;20.670;2022-07-26T23:42:04;51;;;42;;
67975;SDS011;54757;50.890;20.670;2022-07-26T23:49:26;51;;;42;;
67975;SDS011;54757;50.890;20.670;2022-07-26T23:56:20;51;;;42;;
